sensor_id;sensor_type;location;lat;lon;timestamp;P1;durP1;ratioP1;P2;durP2;ratioP2
30147;SDS011;16960;49.404;8.248;2022-09-12T00:01:14;2.57;;;2.37;;
30147;SDS011;16960;49.404;8.248;2022-09-12T00:03:43;2.40;;;2.20;;
30147;SDS011;16960;49.404;8.248;2022-09-12T00:06:11;2.60;;;2.40;;
30147;SDS011;16960;49.404;8.248;2022-09-12T00:08:41;2.40;;;2.30;;
30147;SDS011;16960;49.404;8.248;2022-09-12T00:11:09;2.50;;;2.27;;
30147;SDS011;16960;49.404;8.248;2022-09-12T00:13:37;2.80;;;2.60;;
30147;SDS011;16960;49.404;8.248;2022-09-12T00:16:05;2.80;;;2.60;;
30147;SDS011;16960;49.404;8.248;2022-09-12T00:18:32;2.73;;;2.27;;
30147;SDS011;16960;49.404;8.248;2022-09-12T00:21:01;2.73;;;2.53;;
30147;SDS011;16960;49.404;8.248;2022-09-12T00:23:29;2.20;;;2.10;;
30147;SDS011;16960;49.404;8.248;2022-09-12T00:25:58;3.30;;;2.50;;
30147;SDS011;16960;49.404;8.248;2022-09-12T00:28:25;2.60;;;2.40;;
30147;SDS011;16960;49.404;8.248;2022-09-12T00:30:52;2.20;;;2.10;;
30147;SDS011;16960;49.404;8.248;2022-09-12T00:33:19;2.60;;;2.40;;
30147;SDS011;16960;49.404;8.248;2022-09-12T00:35:46;5.20;;;2.87;;
30147;SDS011;16960;49.404;8.248;2022-09-12T00:38:15;2.73;;;2.53;;
30147;SDS011;16960;49.404;8.248;2022-09-12T00:40:42;2.33;;;2.00;;
30147;SDS011;16960;49.404;8.248;2022-09-12T00:43:13;2.20;;;2.10;;
30147;SDS011;16960;49.404;8.248;2022-09-12T00:45:40;2.70;;;2.50;;
30147;SDS011;16960;49.404;8.248;2022-09-12T00:48:13;2.27;;;1.90;;
30147;SDS011;16960;49.404;8.248;2022-09-12T00:50:47;2.60;;;2.40;;
30147;SDS011;16960;49.404;8.248;2022-09-12T00:53:15;2.30;;;2.20;;
30147;SDS011;16960;49.404;8.248;2022-09-12T00:55:44;2.33;;;2.20;;
30147;SDS011;16960;49.404;8.248;2022-09-12T00:58:17;2.30;;;2.13;;
30147;SDS011;16960;49.404;8.248;2022-09-12T01:00:47;2.33;;;2.23;;
30147;SDS011;16960;49.404;8.248;2022-09-12T01:03:15;2.10;;;2.00;;
30147;SDS011;16960;49.404;8.248;2022-09-12T01:05:45;1.93;;;1.80;;
30147;SDS011;16960;49.404;8.248;2022-09-12T01:08:18;2.50;;;2.20;;
30147;SDS011;16960;49.404;8.248;2022-09-12T01:10:46;3.17;;;2.87;;
30147;SDS011;16960;49.404;8.248;2022-09-12T01:13:13;2.10;;;2.00;;
30147;SDS011;16960;49.404;8.248;2022-09-12T01:15:42;3.10;;;2.60;;
30147;SDS011;16960;49.404;8.248;2022-09-12T01:18:12;2.20;;;2.10;;
30147;SDS011;16960;49.404;8.248;2022-09-12T01:20:49;3.30;;;2.23;;
30147;SDS011;16960;49.404;8.248;2022-09-12T01:26:56;2.83;;;2.63;;
30147;SDS011;16960;49.404;8.248;2022-09-12T01:29:59;2.63;;;2.40;;
30147;SDS011;16960;49.404;8.248;2022-09-12T01:32:54;1.97;;;1.87;;
30147;SDS011;16960;49.404;8.248;2022-09-12T01:35:34;4.10;;;2.57;;
30147;SDS011;16960;49.404;8.248;2022-09-12T01:38:12;2.20;;;2.10;;
30147;SDS011;16960;49.404;8.248;2022-09-12T01:40:45;2.77;;;2.20;;
30147;SDS011;16960;49.404;8.248;2022-09-12T01:43:21;2.50;;;2.30;;
30147;SDS011;16960;49.404;8.248;2022-09-12T01:45:57;2.80;;;2.60;;
30147;SDS011;16960;49.404;8.248;2022-09-12T01:48:31;2.40;;;2.30;;
30147;SDS011;16960;49.404;8.248;2022-09-12T01:51:03;2.80;;;2.60;;
30147;SDS011;16960;49.404;8.248;2022-09-12T01:53:37;2.50;;;2.30;;
30147;SDS011;16960;49.404;8.248;2022-09-12T01:56:09;2.50;;;2.30;;
30147;SDS011;16960;49.404;8.248;2022-09-12T01:58:40;2.43;;;2.33;;
30147;SDS011;16960;49.404;8.248;2022-09-12T02:01:11;2.30;;;2.20;;
30147;SDS011;16960;49.404;8.248;2022-09-12T02:03:43;2.13;;;2.03;;
30147;SDS011;16960;49.404;8.248;2022-09-12T02:06:14;2.20;;;2.10;;
30147;SDS011;16960;49.404;8.248;2022-09-12T02:08:45;2.37;;;2.27;;
30147;SDS011;16960;49.404;8.248;2022-09-12T02:11:16;2.37;;;2.17;;
30147;SDS011;16960;49.404;8.248;2022-09-12T02:13:46;2.70;;;2.50;;
30147;SDS011;16960;49.404;8.248;2022-09-12T02:16:18;2.70;;;2.50;;
30147;SDS011;16960;49.404;8.248;2022-09-12T02:18:51;2.40;;;2.30;;
30147;SDS011;16960;49.404;8.248;2022-09-12T02:21:21;2.57;;;2.37;;
30147;SDS011;16960;49.404;8.248;2022-09-12T02:23:52;2.17;;;2.07;;
30147;SDS011;16960;49.404;8.248;2022-09-12T02:26:24;2.13;;;2.03;;
30147;SDS011;16960;49.404;8.248;2022-09-12T02:28:55;2.00;;;1.90;;
30147;SDS011;16960;49.404;8.248;2022-09-12T02:31:23;2.30;;;2.10;;
30147;SDS011;16960;49.404;8.248;2022-09-12T02:33:59;2.50;;;2.30;;
30147;SDS011;16960;49.404;8.248;2022-09-12T02:36:41;2.50;;;2.30;;
30147;SDS011;16960;49.404;8.248;2022-09-12T02:39:15;2.77;;;2.57;;
30147;SDS011;16960;49.404;8.248;2022-09-12T02:41:44;2.27;;;2.07;;
30147;SDS011;16960;49.404;8.248;2022-09-12T02:44:11;2.37;;;2.20;;
30147;SDS011;16960;49.404;8.248;2022-09-12T02:46:39;3.07;;;2.57;;
30147;SDS011;16960;49.404;8.248;2022-09-12T02:49:10;2.87;;;2.63;;
30147;SDS011;16960;49.404;8.248;2022-09-12T02:51:37;2.47;;;2.27;;
30147;SDS011;16960;49.404;8.248;2022-09-12T02:54:05;2.40;;;2.30;;
30147;SDS011;16960;49.404;8.248;2022-09-12T02:56:33;1.90;;;1.80;;
30147;SDS011;16960;49.404;8.248;2022-09-12T02:59:01;2.50;;;2.40;;
30147;SDS011;16960;49.404;8.248;2022-09-12T03:01:39;2.57;;;2.37;;
30147;SDS011;16960;49.404;8.248;2022-09-12T03:04:22;2.10;;;2.00;;
30147;SDS011;16960;49.404;8.248;2022-09-12T03:07:03;2.83;;;2.63;;
30147;SDS011;16960;49.404;8.248;2022-09-12T03:09:39;2.50;;;2.30;;
30147;SDS011;16960;49.404;8.248;2022-09-12T03:12:16;2.13;;;2.00;;
30147;SDS011;16960;49.404;8.248;2022-09-12T03:14:58;2.70;;;2.50;;
30147;SDS011;16960;49.404;8.248;2022-09-12T03:17:42;2.73;;;2.53;;
30147;SDS011;16960;49.404;8.248;2022-09-12T03:20:23;2.50;;;2.30;;
30147;SDS011;16960;49.404;8.248;2022-09-12T03:23:03;2.60;;;2.40;;
30147;SDS011;16960;49.404;8.248;2022-09-12T03:25:36;2.37;;;2.20;;
30147;SDS011;16960;49.404;8.248;2022-09-12T03:28:09;2.50;;;2.30;;
30147;SDS011;16960;49.404;8.248;2022-09-12T03:30:39;2.13;;;2.03;;
30147;SDS011;16960;49.404;8.248;2022-09-12T03:33:09;6.10;;;2.30;;
30147;SDS011;16960;49.404;8.248;2022-09-12T03:35:38;2.13;;;2.03;;
30147;SDS011;16960;49.404;8.248;2022-09-12T03:38:05;1.63;;;1.53;;
30147;SDS011;16960;49.404;8.248;2022-09-12T03:40:33;2.13;;;2.03;;
30147;SDS011;16960;49.404;8.248;2022-09-12T03:43:00;2.67;;;2.47;;
30147;SDS011;16960;49.404;8.248;2022-09-12T03:45:27;2.20;;;2.00;;
30147;SDS011;16960;49.404;8.248;2022-09-12T03:47:54;2.07;;;1.97;;
30147;SDS011;16960;49.404;8.248;2022-09-12T03:50:22;2.40;;;2.20;;
30147;SDS011;16960;49.404;8.248;2022-09-12T03:52:50;2.60;;;2.40;;
30147;SDS011;16960;49.404;8.248;2022-09-12T03:55:17;2.70;;;2.50;;
30147;SDS011;16960;49.404;8.248;2022-09-12T03:57:44;2.47;;;2.30;;
30147;SDS011;16960;49.404;8.248;2022-09-12T04:00:11;2.63;;;2.43;;
30147;SDS011;16960;49.404;8.248;2022-09-12T04:02:39;2.43;;;2.27;;
30147;SDS011;16960;49.404;8.248;2022-09-12T04:05:06;2.07;;;1.97;;
30147;SDS011;16960;49.404;8.248;2022-09-12T04:07:33;2.53;;;2.27;;
30147;SDS011;16960;49.404;8.248;2022-09-12T04:10:01;2.27;;;2.17;;
30147;SDS011;16960;49.404;8.248;2022-09-12T04:12:29;2.10;;;2.00;;
30147;SDS011;16960;49.404;8.248;2022-09-12T04:14:56;1.67;;;1.57;;
30147;SDS011;16960;49.404;8.248;2022-09-12T04:17:23;2.20;;;2.10;;
30147;SDS011;16960;49.404;8.248;2022-09-12T04:19:49;2.60;;;2.40;;
30147;SDS011;16960;49.404;8.248;2022-09-12T04:22:16;2.17;;;2.07;;
30147;SDS011;16960;49.404;8.248;2022-09-12T04:24:45;2.00;;;1.90;;
30147;SDS011;16960;49.404;8.248;2022-09-12T04:27:13;2.33;;;2.20;;
30147;SDS011;16960;49.404;8.248;2022-09-12T04:29:40;2.43;;;1.97;;
30147;SDS011;16960;49.404;8.248;2022-09-12T04:32:07;2.50;;;2.30;;
30147;SDS011;16960;49.404;8.248;2022-09-12T04:34:34;2.40;;;2.20;;
30147;SDS011;16960;49.404;8.248;2022-09-12T04:37:01;2.20;;;2.00;;
30147;SDS011;16960;49.404;8.248;2022-09-12T04:39:28;1.87;;;1.50;;
30147;SDS011;16960;49.404;8.248;2022-09-12T04:41:55;2.07;;;1.97;;
30147;SDS011;16960;49.404;8.248;2022-09-12T04:44:23;2.00;;;1.90;;
30147;SDS011;16960;49.404;8.248;2022-09-12T04:46:50;2.40;;;2.20;;
30147;SDS011;16960;49.404;8.248;2022-09-12T04:49:17;2.10;;;2.00;;
30147;SDS011;16960;49.404;8.248;2022-09-12T04:51:44;2.50;;;2.10;;
30147;SDS011;16960;49.404;8.248;2022-09-12T04:54:12;2.30;;;2.20;;
30147;SDS011;16960;49.404;8.248;2022-09-12T04:56:40;2.47;;;2.27;;
30147;SDS011;16960;49.404;8.248;2022-09-12T04:59:09;2.07;;;1.97;;
30147;SDS011;16960;49.404;8.248;2022-09-12T05:01:38;2.13;;;1.70;;
30147;SDS011;16960;49.404;8.248;2022-09-12T05:04:05;2.23;;;2.13;;
30147;SDS011;16960;49.404;8.248;2022-09-12T05:06:33;2.63;;;2.43;;
30147;SDS011;16960;49.404;8.248;2022-09-12T05:09:02;2.10;;;2.00;;
30147;SDS011;16960;49.404;8.248;2022-09-12T05:11:31;2.00;;;1.90;;
30147;SDS011;16960;49.404;8.248;2022-09-12T05:13:59;2.03;;;1.93;;
30147;SDS011;16960;49.404;8.248;2022-09-12T05:16:26;1.87;;;1.77;;
30147;SDS011;16960;49.404;8.248;2022-09-12T05:18:56;2.30;;;2.10;;
30147;SDS011;16960;49.404;8.248;2022-09-12T05:21:24;2.17;;;1.97;;
30147;SDS011;16960;49.404;8.248;2022-09-12T05:23:52;2.17;;;2.07;;
30147;SDS011;16960;49.404;8.248;2022-09-12T05:26:20;2.10;;;2.00;;
30147;SDS011;16960;49.404;8.248;2022-09-12T05:28:48;2.00;;;1.90;;
30147;SDS011;16960;49.404;8.248;2022-09-12T05:31:17;2.70;;;2.50;;
30147;SDS011;16960;49.404;8.248;2022-09-12T05:33:46;2.20;;;2.03;;
30147;SDS011;16960;49.404;8.248;2022-09-12T05:36:17;2.57;;;2.37;;
30147;SDS011;16960;49.404;8.248;2022-09-12T05:38:45;2.03;;;1.93;;
30147;SDS011;16960;49.404;8.248;2022-09-12T05:41:12;1.97;;;1.87;;
30147;SDS011;16960;49.404;8.248;2022-09-12T05:43:40;2.00;;;1.90;;
30147;SDS011;16960;49.404;8.248;2022-09-12T05:46:10;2.03;;;1.93;;
30147;SDS011;16960;49.404;8.248;2022-09-12T05:48:38;2.03;;;1.93;;
30147;SDS011;16960;49.404;8.248;2022-09-12T05:51:07;2.03;;;1.90;;
30147;SDS011;16960;49.404;8.248;2022-09-12T05:53:37;2.27;;;2.13;;
30147;SDS011;16960;49.404;8.248;2022-09-12T05:56:06;2.80;;;2.33;;
30147;SDS011;16960;49.404;8.248;2022-09-12T05:58:35;5.27;;;2.53;;
30147;SDS011;16960;49.404;8.248;2022-09-12T06:01:04;5.90;;;2.80;;
30147;SDS011;16960;49.404;8.248;2022-09-12T06:03:32;2.60;;;2.40;;
30147;SDS011;16960;49.404;8.248;2022-09-12T06:06:03;4.60;;;2.67;;
30147;SDS011;16960;49.404;8.248;2022-09-12T06:08:31;2.93;;;2.73;;
30147;SDS011;16960;49.404;8.248;2022-09-12T06:11:00;3.03;;;2.70;;
30147;SDS011;16960;49.404;8.248;2022-09-12T06:13:30;3.53;;;3.07;;
30147;SDS011;16960;49.404;8.248;2022-09-12T06:16:01;2.90;;;2.70;;
30147;SDS011;16960;49.404;8.248;2022-09-12T06:18:29;2.73;;;2.53;;
30147;SDS011;16960;49.404;8.248;2022-09-12T06:20:56;4.10;;;3.20;;
30147;SDS011;16960;49.404;8.248;2022-09-12T06:23:27;3.57;;;2.83;;
30147;SDS011;16960;49.404;8.248;2022-09-12T06:25:54;3.23;;;2.93;;
30147;SDS011;16960;49.404;8.248;2022-09-12T06:28:23;3.47;;;3.07;;
30147;SDS011;16960;49.404;8.248;2022-09-12T06:30:50;3.50;;;3.20;;
30147;SDS011;16960;49.404;8.248;2022-09-12T06:33:17;4.07;;;3.30;;
30147;SDS011;16960;49.404;8.248;2022-09-12T06:35:44;3.23;;;2.90;;
30147;SDS011;16960;49.404;8.248;2022-09-12T06:38:12;2.90;;;2.70;;
30147;SDS011;16960;49.404;8.248;2022-09-12T06:40:40;3.30;;;3.10;;
30147;SDS011;16960;49.404;8.248;2022-09-12T06:43:08;3.60;;;3.20;;
30147;SDS011;16960;49.404;8.248;2022-09-12T06:45:39;3.40;;;3.10;;
30147;SDS011;16960;49.404;8.248;2022-09-12T06:48:13;4.27;;;3.87;;
30147;SDS011;16960;49.404;8.248;2022-09-12T06:50:40;3.17;;;2.93;;
30147;SDS011;16960;49.404;8.248;2022-09-12T06:53:07;4.20;;;3.80;;
30147;SDS011;16960;49.404;8.248;2022-09-12T06:55:34;4.30;;;3.90;;
30147;SDS011;16960;49.404;8.248;2022-09-12T06:58:01;3.37;;;3.13;;
30147;SDS011;16960;49.404;8.248;2022-09-12T07:00:29;3.97;;;3.67;;
30147;SDS011;16960;49.404;8.248;2022-09-12T07:02:58;3.50;;;3.10;;
30147;SDS011;16960;49.404;8.248;2022-09-12T07:05:25;5.80;;;4.13;;
30147;SDS011;16960;49.404;8.248;2022-09-12T07:07:52;4.20;;;3.83;;
30147;SDS011;16960;49.404;8.248;2022-09-12T07:10:19;5.20;;;3.80;;
30147;SDS011;16960;49.404;8.248;2022-09-12T07:12:46;3.83;;;3.53;;
30147;SDS011;16960;49.404;8.248;2022-09-12T07:15:13;4.13;;;3.77;;
30147;SDS011;16960;49.404;8.248;2022-09-12T07:17:42;4.17;;;2.97;;
30147;SDS011;16960;49.404;8.248;2022-09-12T07:20:10;4.10;;;3.70;;
30147;SDS011;16960;49.404;8.248;2022-09-12T07:22:37;3.83;;;3.53;;
30147;SDS011;16960;49.404;8.248;2022-09-12T07:25:05;3.33;;;3.13;;
30147;SDS011;16960;49.404;8.248;2022-09-12T07:27:33;3.90;;;3.60;;
30147;SDS011;16960;49.404;8.248;2022-09-12T07:30:02;4.07;;;3.67;;
30147;SDS011;16960;49.404;8.248;2022-09-12T07:32:30;3.40;;;3.13;;
30147;SDS011;16960;49.404;8.248;2022-09-12T07:34:57;3.77;;;3.37;;
30147;SDS011;16960;49.404;8.248;2022-09-12T07:37:25;3.40;;;3.13;;
30147;SDS011;16960;49.404;8.248;2022-09-12T07:39:55;4.07;;;3.77;;
30147;SDS011;16960;49.404;8.248;2022-09-12T07:42:22;10.07;;;4.70;;
30147;SDS011;16960;49.404;8.248;2022-09-12T07:44:48;6.67;;;5.97;;
30147;SDS011;16960;49.404;8.248;2022-09-12T07:47:16;6.67;;;6.07;;
30147;SDS011;16960;49.404;8.248;2022-09-12T07:49:43;6.57;;;5.90;;
30147;SDS011;16960;49.404;8.248;2022-09-12T07:52:10;6.33;;;5.30;;
30147;SDS011;16960;49.404;8.248;2022-09-12T07:54:38;6.20;;;5.43;;
30147;SDS011;16960;49.404;8.248;2022-09-12T07:57:05;8.27;;;6.33;;
30147;SDS011;16960;49.404;8.248;2022-09-12T07:59:32;7.33;;;6.07;;
30147;SDS011;16960;49.404;8.248;2022-09-12T08:01:59;7.93;;;5.70;;
30147;SDS011;16960;49.404;8.248;2022-09-12T08:04:28;6.47;;;5.50;;
30147;SDS011;16960;49.404;8.248;2022-09-12T08:06:55;6.67;;;5.97;;
30147;SDS011;16960;49.404;8.248;2022-09-12T08:09:22;6.20;;;5.60;;
30147;SDS011;16960;49.404;8.248;2022-09-12T08:11:50;5.53;;;5.03;;
30147;SDS011;16960;49.404;8.248;2022-09-12T08:14:17;6.27;;;5.43;;
30147;SDS011;16960;49.404;8.248;2022-09-12T08:16:45;5.87;;;5.37;;
30147;SDS011;16960;49.404;8.248;2022-09-12T08:19:12;6.83;;;4.97;;
30147;SDS011;16960;49.404;8.248;2022-09-12T08:21:39;9.23;;;5.90;;
30147;SDS011;16960;49.404;8.248;2022-09-12T08:24:06;6.13;;;5.40;;
30147;SDS011;16960;49.404;8.248;2022-09-12T08:26:33;5.67;;;5.20;;
30147;SDS011;16960;49.404;8.248;2022-09-12T08:29:02;7.33;;;6.27;;
30147;SDS011;16960;49.404;8.248;2022-09-12T08:31:29;6.63;;;5.97;;
30147;SDS011;16960;49.404;8.248;2022-09-12T08:34:00;7.43;;;6.77;;
30147;SDS011;16960;49.404;8.248;2022-09-12T08:36:28;8.53;;;7.77;;
30147;SDS011;16960;49.404;8.248;2022-09-12T08:38:55;6.33;;;5.73;;
30147;SDS011;16960;49.404;8.248;2022-09-12T08:41:25;6.50;;;5.93;;
30147;SDS011;16960;49.404;8.248;2022-09-12T08:43:58;6.80;;;6.10;;
30147;SDS011;16960;49.404;8.248;2022-09-12T08:46:42;5.63;;;5.13;;
30147;SDS011;16960;49.404;8.248;2022-09-12T08:49:22;6.67;;;5.77;;
30147;SDS011;16960;49.404;8.248;2022-09-12T08:51:53;7.37;;;6.77;;
30147;SDS011;16960;49.404;8.248;2022-09-12T08:54:24;6.93;;;6.33;;
30147;SDS011;16960;49.404;8.248;2022-09-12T08:56:55;5.87;;;5.37;;
30147;SDS011;16960;49.404;8.248;2022-09-12T08:59:27;6.40;;;5.80;;
30147;SDS011;16960;49.404;8.248;2022-09-12T09:02:01;5.60;;;5.13;;
30147;SDS011;16960;49.404;8.248;2022-09-12T09:04:36;5.57;;;5.13;;
30147;SDS011;16960;49.404;8.248;2022-09-12T09:10:06;5.80;;;5.20;;
30147;SDS011;16960;49.404;8.248;2022-09-12T09:12:45;7.27;;;6.67;;
30147;SDS011;16960;49.404;8.248;2022-09-12T09:15:33;8.10;;;6.77;;
30147;SDS011;16960;49.404;8.248;2022-09-12T09:18:09;7.03;;;6.43;;
30147;SDS011;16960;49.404;8.248;2022-09-12T09:20:43;7.20;;;6.53;;
30147;SDS011;16960;49.404;8.248;2022-09-12T09:23:14;7.93;;;6.70;;
30147;SDS011;16960;49.404;8.248;2022-09-12T09:25:48;6.07;;;5.47;;
30147;SDS011;16960;49.404;8.248;2022-09-12T09:28:19;7.20;;;6.50;;
30147;SDS011;16960;49.404;8.248;2022-09-12T09:30:50;7.03;;;6.43;;
30147;SDS011;16960;49.404;8.248;2022-09-12T09:33:21;6.67;;;5.97;;
30147;SDS011;16960;49.404;8.248;2022-09-12T09:35:54;7.07;;;6.47;;
30147;SDS011;16960;49.404;8.248;2022-09-12T09:38:30;6.50;;;5.90;;
30147;SDS011;16960;49.404;8.248;2022-09-12T09:41:14;9.30;;;6.60;;
30147;SDS011;16960;49.404;8.248;2022-09-12T09:44:00;7.73;;;6.83;;
30147;SDS011;16960;49.404;8.248;2022-09-12T09:46:27;7.50;;;6.90;;
30147;SDS011;16960;49.404;8.248;2022-09-12T09:48:56;7.17;;;6.57;;
30147;SDS011;16960;49.404;8.248;2022-09-12T09:51:25;7.63;;;6.50;;
30147;SDS011;16960;49.404;8.248;2022-09-12T09:53:57;7.90;;;7.10;;
30147;SDS011;16960;49.404;8.248;2022-09-12T09:56:27;6.93;;;6.40;;
30147;SDS011;16960;49.404;8.248;2022-09-12T09:59:07;9.07;;;6.60;;
30147;SDS011;16960;49.404;8.248;2022-09-12T10:01:35;5.90;;;5.40;;
30147;SDS011;16960;49.404;8.248;2022-09-12T10:04:08;6.40;;;5.80;;
30147;SDS011;16960;49.404;8.248;2022-09-12T10:06:44;6.77;;;6.17;;
30147;SDS011;16960;49.404;8.248;2022-09-12T10:09:18;7.30;;;6.60;;
30147;SDS011;16960;49.404;8.248;2022-09-12T10:11:48;8.03;;;6.40;;
30147;SDS011;16960;49.404;8.248;2022-09-12T10:17:24;8.40;;;7.60;;
30147;SDS011;16960;49.404;8.248;2022-09-12T10:19:55;8.93;;;8.03;;
30147;SDS011;16960;49.404;8.248;2022-09-12T10:22:23;7.20;;;6.60;;
30147;SDS011;16960;49.404;8.248;2022-09-12T10:24:53;7.00;;;6.47;;
30147;SDS011;16960;49.404;8.248;2022-09-12T10:27:24;6.50;;;5.90;;
30147;SDS011;16960;49.404;8.248;2022-09-12T10:29:58;6.50;;;5.03;;
30147;SDS011;16960;49.404;8.248;2022-09-12T10:32:28;6.27;;;5.77;;
30147;SDS011;16960;49.404;8.248;2022-09-12T10:35:01;6.27;;;5.67;;
30147;SDS011;16960;49.404;8.248;2022-09-12T10:37:33;8.63;;;5.97;;
30147;SDS011;16960;49.404;8.248;2022-09-12T10:40:04;6.87;;;6.27;;
30147;SDS011;16960;49.404;8.248;2022-09-12T10:42:44;6.57;;;6.03;;
30147;SDS011;16960;49.404;8.248;2022-09-12T10:45:19;7.90;;;5.83;;
30147;SDS011;16960;49.404;8.248;2022-09-12T10:47:50;6.20;;;5.60;;
30147;SDS011;16960;49.404;8.248;2022-09-12T10:50:20;7.33;;;6.73;;
30147;SDS011;16960;49.404;8.248;2022-09-12T10:52:50;7.50;;;6.70;;
30147;SDS011;16960;49.404;8.248;2022-09-12T10:55:17;7.23;;;6.43;;
30147;SDS011;16960;49.404;8.248;2022-09-12T11:00:53;7.00;;;6.30;;
30147;SDS011;16960;49.404;8.248;2022-09-12T11:03:33;6.17;;;5.67;;
30147;SDS011;16960;49.404;8.248;2022-09-12T11:06:16;6.17;;;5.67;;
30147;SDS011;16960;49.404;8.248;2022-09-12T11:08:54;5.50;;;5.00;;
30147;SDS011;16960;49.404;8.248;2022-09-12T11:11:37;5.50;;;5.00;;
30147;SDS011;16960;49.404;8.248;2022-09-12T11:14:17;5.67;;;5.20;;
30147;SDS011;16960;49.404;8.248;2022-09-12T11:17:00;5.27;;;4.80;;
30147;SDS011;16960;49.404;8.248;2022-09-12T11:22:42;4.90;;;4.50;;
30147;SDS011;16960;49.404;8.248;2022-09-12T11:25:27;5.00;;;4.60;;
30147;SDS011;16960;49.404;8.248;2022-09-12T11:28:04;5.00;;;4.60;;
30147;SDS011;16960;49.404;8.248;2022-09-12T11:30:46;5.03;;;4.63;;
30147;SDS011;16960;49.404;8.248;2022-09-12T11:33:27;5.40;;;4.90;;
30147;SDS011;16960;49.404;8.248;2022-09-12T11:36:06;5.00;;;4.60;;
30147;SDS011;16960;49.404;8.248;2022-09-12T11:41:35;4.37;;;3.97;;
30147;SDS011;16960;49.404;8.248;2022-09-12T11:44:08;6.13;;;4.33;;
30147;SDS011;16960;49.404;8.248;2022-09-12T11:46:41;5.17;;;4.50;;
30147;SDS011;16960;49.404;8.248;2022-09-12T11:49:15;4.53;;;4.20;;
30147;SDS011;16960;49.404;8.248;2022-09-12T11:51:52;5.00;;;4.60;;
30147;SDS011;16960;49.404;8.248;2022-09-12T11:54:25;4.57;;;4.27;;
30147;SDS011;16960;49.404;8.248;2022-09-12T11:57:00;5.77;;;5.37;;
30147;SDS011;16960;49.404;8.248;2022-09-12T11:59:34;4.80;;;4.40;;
30147;SDS011;16960;49.404;8.248;2022-09-12T12:02:10;4.60;;;4.20;;
30147;SDS011;16960;49.404;8.248;2022-09-12T12:04:39;4.20;;;3.90;;
30147;SDS011;16960;49.404;8.248;2022-09-12T12:07:12;4.10;;;3.87;;
30147;SDS011;16960;49.404;8.248;2022-09-12T12:09:50;5.20;;;4.03;;
30147;SDS011;16960;49.404;8.248;2022-09-12T12:12:20;4.40;;;4.10;;
30147;SDS011;16960;49.404;8.248;2022-09-12T12:14:51;4.27;;;3.87;;
30147;SDS011;16960;49.404;8.248;2022-09-12T12:17:19;4.03;;;3.63;;
30147;SDS011;16960;49.404;8.248;2022-09-12T12:19:55;4.20;;;3.80;;
30147;SDS011;16960;49.404;8.248;2022-09-12T12:22:24;3.80;;;3.50;;
30147;SDS011;16960;49.404;8.248;2022-09-12T12:27:51;4.23;;;3.90;;
30147;SDS011;16960;49.404;8.248;2022-09-12T12:45:48;3.77;;;3.47;;
30147;SDS011;16960;49.404;8.248;2022-09-12T12:48:46;4.20;;;3.80;;
30147;SDS011;16960;49.404;8.248;2022-09-12T12:51:36;3.80;;;3.50;;
30147;SDS011;16960;49.404;8.248;2022-09-12T12:54:27;3.93;;;3.63;;
30147;SDS011;16960;49.404;8.248;2022-09-12T12:57:16;4.00;;;3.70;;
30147;SDS011;16960;49.404;8.248;2022-09-12T12:59:48;4.00;;;3.70;;
30147;SDS011;16960;49.404;8.248;2022-09-12T13:02:21;3.47;;;3.23;;
30147;SDS011;16960;49.404;8.248;2022-09-12T13:04:52;3.37;;;3.13;;
30147;SDS011;16960;49.404;8.248;2022-09-12T13:07:22;3.30;;;3.10;;
30147;SDS011;16960;49.404;8.248;2022-09-12T13:09:56;3.20;;;3.00;;
30147;SDS011;16960;49.404;8.248;2022-09-12T13:12:25;3.87;;;3.60;;
30147;SDS011;16960;49.404;8.248;2022-09-12T13:14:54;3.17;;;2.97;;
30147;SDS011;16960;49.404;8.248;2022-09-12T13:17:28;3.17;;;2.97;;
30147;SDS011;16960;49.404;8.248;2022-09-12T13:20:16;5.00;;;3.47;;
30147;SDS011;16960;49.404;8.248;2022-09-12T13:22:47;3.90;;;3.60;;
30147;SDS011;16960;49.404;8.248;2022-09-12T13:25:19;3.20;;;3.00;;
30147;SDS011;16960;49.404;8.248;2022-09-12T13:27:58;3.23;;;3.03;;
30147;SDS011;16960;49.404;8.248;2022-09-12T13:30:27;3.40;;;3.10;;
30147;SDS011;16960;49.404;8.248;2022-09-12T13:32:57;3.10;;;2.90;;
30147;SDS011;16960;49.404;8.248;2022-09-12T13:35:36;3.70;;;3.10;;
30147;SDS011;16960;49.404;8.248;2022-09-12T13:38:13;3.33;;;3.03;;
30147;SDS011;16960;49.404;8.248;2022-09-12T13:40:52;3.60;;;3.30;;
30147;SDS011;16960;49.404;8.248;2022-09-12T13:43:29;3.03;;;2.83;;
30147;SDS011;16960;49.404;8.248;2022-09-12T13:46:04;3.50;;;3.20;;
30147;SDS011;16960;49.404;8.248;2022-09-12T13:48:34;3.13;;;2.93;;
30147;SDS011;16960;49.404;8.248;2022-09-12T13:51:01;2.90;;;2.70;;
30147;SDS011;16960;49.404;8.248;2022-09-12T13:53:34;3.17;;;2.87;;
30147;SDS011;16960;49.404;8.248;2022-09-12T13:56:07;2.77;;;2.57;;
30147;SDS011;16960;49.404;8.248;2022-09-12T13:58:49;3.30;;;2.90;;
30147;SDS011;16960;49.404;8.248;2022-09-12T14:01:18;3.87;;;3.57;;
30147;SDS011;16960;49.404;8.248;2022-09-12T14:03:51;3.40;;;2.90;;
30147;SDS011;16960;49.404;8.248;2022-09-12T14:06:46;5.50;;;3.00;;
30147;SDS011;16960;49.404;8.248;2022-09-12T14:09:15;4.80;;;2.60;;
30147;SDS011;16960;49.404;8.248;2022-09-12T14:11:47;2.60;;;2.40;;
30147;SDS011;16960;49.404;8.248;2022-09-12T14:14:18;3.30;;;3.00;;
30147;SDS011;16960;49.404;8.248;2022-09-12T14:16:51;3.37;;;2.60;;
30147;SDS011;16960;49.404;8.248;2022-09-12T14:19:20;3.40;;;2.70;;
30147;SDS011;16960;49.404;8.248;2022-09-12T14:21:50;3.10;;;2.87;;
30147;SDS011;16960;49.404;8.248;2022-09-12T14:24:18;5.73;;;2.73;;
30147;SDS011;16960;49.404;8.248;2022-09-12T14:26:48;3.00;;;2.67;;
30147;SDS011;16960;49.404;8.248;2022-09-12T14:29:17;4.73;;;2.70;;
30147;SDS011;16960;49.404;8.248;2022-09-12T14:31:46;2.73;;;2.53;;
30147;SDS011;16960;49.404;8.248;2022-09-12T14:34:28;3.03;;;2.83;;
30147;SDS011;16960;49.404;8.248;2022-09-12T14:36:55;2.50;;;2.30;;
30147;SDS011;16960;49.404;8.248;2022-09-12T14:39:25;2.80;;;2.50;;
30147;SDS011;16960;49.404;8.248;2022-09-12T14:42:00;4.53;;;2.93;;
30147;SDS011;16960;49.404;8.248;2022-09-12T14:44:30;3.27;;;3.07;;
30147;SDS011;16960;49.404;8.248;2022-09-12T14:47:00;5.03;;;2.40;;
30147;SDS011;16960;49.404;8.248;2022-09-12T14:49:39;2.47;;;2.27;;
30147;SDS011;16960;49.404;8.248;2022-09-12T14:52:07;4.47;;;2.40;;
30147;SDS011;16960;49.404;8.248;2022-09-12T14:54:54;2.83;;;2.63;;
30147;SDS011;16960;49.404;8.248;2022-09-12T14:57:30;2.37;;;2.27;;
30147;SDS011;16960;49.404;8.248;2022-09-12T15:03:13;2.93;;;2.33;;
30147;SDS011;16960;49.404;8.248;2022-09-12T15:05:50;4.43;;;2.60;;
30147;SDS011;16960;49.404;8.248;2022-09-12T15:08:17;2.20;;;2.00;;
30147;SDS011;16960;49.404;8.248;2022-09-12T15:10:45;2.50;;;2.30;;
30147;SDS011;16960;49.404;8.248;2022-09-12T15:13:14;2.20;;;2.00;;
30147;SDS011;16960;49.404;8.248;2022-09-12T15:15:44;3.00;;;2.70;;
30147;SDS011;16960;49.404;8.248;2022-09-12T15:18:12;2.70;;;2.40;;
30147;SDS011;16960;49.404;8.248;2022-09-12T15:20:40;2.40;;;2.30;;
30147;SDS011;16960;49.404;8.248;2022-09-12T15:23:11;2.30;;;2.20;;
30147;SDS011;16960;49.404;8.248;2022-09-12T15:25:42;2.40;;;2.30;;
30147;SDS011;16960;49.404;8.248;2022-09-12T15:28:17;2.77;;;2.57;;
30147;SDS011;16960;49.404;8.248;2022-09-12T15:30:45;2.43;;;2.23;;
30147;SDS011;16960;49.404;8.248;2022-09-12T15:33:14;2.30;;;2.10;;
30147;SDS011;16960;49.404;8.248;2022-09-12T15:35:42;2.40;;;2.20;;
30147;SDS011;16960;49.404;8.248;2022-09-12T15:38:10;2.43;;;2.23;;
30147;SDS011;16960;49.404;8.248;2022-09-12T15:40:37;2.27;;;2.17;;
30147;SDS011;16960;49.404;8.248;2022-09-12T15:43:04;2.33;;;2.20;;
30147;SDS011;16960;49.404;8.248;2022-09-12T15:45:32;2.27;;;2.07;;
30147;SDS011;16960;49.404;8.248;2022-09-12T15:48:00;2.13;;;2.03;;
30147;SDS011;16960;49.404;8.248;2022-09-12T15:50:28;2.13;;;2.03;;
30147;SDS011;16960;49.404;8.248;2022-09-12T15:52:56;2.30;;;2.10;;